createdAt,value
2022-12-12T00:01:45.946Z,96127.31
2022-12-12T00:04:14.651Z,96121.91
2022-12-12T00:06:44.702Z,96116.28
2022-12-12T00:09:13.095Z,96129.09
2022-12-12T00:11:41.939Z,96120.03
2022-12-12T00:14:10.737Z,96131.25
2022-12-12T00:16:39.574Z,96128.28
2022-12-12T00:19:07.932Z,96128.03
2022-12-12T00:21:36.539Z,96128.53
2022-12-12T00:24:07.639Z,96129.84
2022-12-12T00:26:36.840Z,96138.72
2022-12-12T00:29:06.441Z,96135.81
2022-12-12T00:31:35.100Z,96134.94
2022-12-12T00:34:03.884Z,96135.44
2022-12-12T00:36:33.210Z,96138.69
2022-12-12T00:39:03.315Z,96135.75
2022-12-12T00:41:33.088Z,96134.38
2022-12-12T00:44:01.411Z,96136.28
2022-12-12T00:46:30.141Z,96145.38
2022-12-12T00:49:00.444Z,96140.78
2022-12-12T00:51:31.345Z,96146.47
2022-12-12T00:54:01.420Z,96145.13
2022-12-12T00:56:32.699Z,96140.75
2022-12-12T00:59:02.546Z,96145.09
2022-12-12T01:01:34.436Z,96147.84
2022-12-12T01:04:04.893Z,96141.97
2022-12-12T01:06:33.407Z,96148.44
2022-12-12T01:09:02.020Z,96147.66
2022-12-12T01:11:32.120Z,96157.25
2022-12-12T01:14:00.633Z,96159.16
2022-12-12T01:16:30.105Z,96157.00
2022-12-12T01:18:58.562Z,96158.59
2022-12-12T01:21:27.403Z,96156.44
2022-12-12T01:23:55.991Z,96161.53
2022-12-12T01:26:25.877Z,96162.91
2022-12-12T01:28:56.484Z,96163.19
2022-12-12T01:31:25.394Z,96168.50
2022-12-12T01:33:54.061Z,96165.50
2022-12-12T01:36:25.180Z,96170.63
2022-12-12T01:38:57.067Z,96168.97
2022-12-12T01:41:26.359Z,96165.50
2022-12-12T01:43:56.200Z,96163.31
2022-12-12T01:46:45.620Z,96166.78
2022-12-12T01:49:26.413Z,96169.66
2022-12-12T01:52:00.128Z,96170.47
2022-12-12T01:54:33.770Z,96167.28
2022-12-12T01:57:08.340Z,96175.59
2022-12-12T01:59:40.348Z,96171.88
2022-12-12T02:02:09.999Z,96174.81
2022-12-12T02:04:39.062Z,96172.91
2022-12-12T02:07:07.505Z,96175.59
2022-12-12T02:09:37.911Z,96172.91
2022-12-12T02:12:07.215Z,96175.88
2022-12-12T02:14:43.111Z,96182.06
2022-12-12T02:17:38.493Z,96177.50
2022-12-12T02:20:55.480Z,96190.09
2022-12-12T02:24:11.236Z,96191.66
2022-12-12T02:27:25.626Z,96187.38
2022-12-12T02:30:22.368Z,96190.06
2022-12-12T02:33:18.188Z,96190.81
2022-12-12T02:36:05.446Z,96185.97
2022-12-12T02:38:52.586Z,96184.66
2022-12-12T02:41:32.726Z,96187.03
2022-12-12T02:44:09.423Z,96185.72
2022-12-12T02:46:46.952Z,96194.31
2022-12-12T02:49:23.647Z,96194.88
2022-12-12T02:51:54.445Z,96200.50
2022-12-12T02:54:24.332Z,96188.44
2022-12-12T02:56:56.689Z,96194.31
2022-12-12T02:59:31.144Z,96201.84
2022-12-12T03:02:29.920Z,96202.94
2022-12-12T03:05:38.456Z,96202.66
2022-12-12T03:08:23.958Z,96200.47
2022-12-12T03:11:02.129Z,96195.34
2022-12-12T03:13:44.051Z,96192.03
2022-12-12T03:16:27.437Z,96199.78
2022-12-12T03:19:08.292Z,96196.03
2022-12-12T03:21:47.353Z,96193.69
2022-12-12T03:24:25.442Z,96196.38
2022-12-12T03:26:58.433Z,96193.94
2022-12-12T03:29:33.274Z,96187.84
2022-12-12T03:32:08.642Z,96191.84
2022-12-12T03:34:43.038Z,96197.97
2022-12-12T03:37:22.042Z,96202.22
2022-12-12T03:39:57.614Z,96204.38
2022-12-12T03:42:32.875Z,96201.16
2022-12-12T03:45:08.686Z,96195.72
2022-12-12T03:47:43.540Z,96202.44
2022-12-12T03:50:20.501Z,96203.47
2022-12-12T03:52:58.703Z,96211.53
2022-12-12T03:55:35.089Z,96203.81
2022-12-12T03:58:12.640Z,96200.84
2022-12-12T04:00:43.429Z,96205.66
2022-12-12T04:03:22.849Z,96208.63
2022-12-12T04:06:19.347Z,96207.31
2022-12-12T04:09:03.670Z,96211.59
2022-12-12T04:11:59.628Z,96208.63
2022-12-12T04:14:54.248Z,96207.56
2022-12-12T04:17:34.078Z,96203.78
2022-12-12T04:20:33.060Z,96199.81
2022-12-12T04:23:17.313Z,96204.63
2022-12-12T04:26:22.993Z,96203.25
2022-12-12T04:29:20.815Z,96203.16
2022-12-12T04:31:56.344Z,96213.03
2022-12-12T04:34:36.458Z,96209.81
2022-12-12T04:37:07.839Z,96207.63
2022-12-12T04:39:40.026Z,96207.09
2022-12-12T04:42:16.291Z,96199.31
2022-12-12T04:44:46.635Z,96209.38
2022-12-12T04:47:16.941Z,96201.03
2022-12-12T04:49:49.896Z,96202.34
2022-12-12T04:52:23.580Z,96205.75
2022-12-12T04:55:01.300Z,96211.91
2022-12-12T04:57:40.008Z,96205.50
2022-12-12T05:00:11.317Z,96206.88
2022-12-12T05:02:51.126Z,96203.69
2022-12-12T05:05:26.927Z,96207.16
2022-12-12T05:08:04.051Z,96210.09
2022-12-12T05:10:33.201Z,96224.88
2022-12-12T05:13:03.025Z,96225.94
2022-12-12T05:15:31.826Z,96222.44
2022-12-12T05:18:06.542Z,96219.78
2022-12-12T05:20:35.090Z,96225.94
2022-12-12T05:23:04.111Z,96226.16
2022-12-12T05:25:33.000Z,96233.63
2022-12-12T05:28:02.710Z,96228.28
2022-12-12T05:30:31.387Z,96233.94
2022-12-12T05:33:00.028Z,96230.13
2022-12-12T05:35:28.864Z,96231.94
2022-12-12T05:37:57.639Z,96227.13
2022-12-12T05:40:26.280Z,96230.06
2022-12-12T05:42:54.595Z,96231.94
2022-12-12T05:45:24.332Z,96241.38
2022-12-12T05:47:52.786Z,96247.47
2022-12-12T05:50:21.469Z,96251.41
2022-12-12T05:52:50.072Z,96250.81
2022-12-12T05:55:18.502Z,96248.38
2022-12-12T05:57:47.107Z,96255.84
2022-12-12T06:00:16.179Z,96260.16
2022-12-12T06:02:45.928Z,96257.88
2022-12-12T06:05:14.934Z,96259.53
2022-12-12T06:07:44.076Z,96269.66
2022-12-12T06:10:13.632Z,96261.84
2022-12-12T06:12:42.138Z,96265.69
2022-12-12T06:15:11.935Z,96261.75
2022-12-12T06:17:41.110Z,96261.38
2022-12-12T06:20:11.986Z,96266.38
2022-12-12T06:22:42.316Z,96266.84
2022-12-12T06:25:12.155Z,96265.97
2022-12-12T06:27:40.751Z,96271.94
2022-12-12T06:30:11.053Z,96272.19
2022-12-12T06:32:39.432Z,96272.50
2022-12-12T06:35:08.603Z,96273.63
2022-12-12T06:37:38.343Z,96274.38
2022-12-12T06:40:08.589Z,96283.13
2022-12-12T06:42:36.991Z,96283.69
2022-12-12T06:45:06.390Z,96284.75
2022-12-12T06:47:35.064Z,96287.69
2022-12-12T06:50:03.545Z,96294.06
2022-12-12T06:52:32.820Z,96287.09
2022-12-12T06:55:02.819Z,96292.44
2022-12-12T06:57:31.447Z,96296.03
2022-12-12T06:59:59.887Z,96294.91
2022-12-12T07:02:30.265Z,96302.44
2022-12-12T07:05:00.042Z,96306.25
2022-12-12T07:07:28.418Z,96309.16
2022-12-12T07:09:59.450Z,96309.41
2022-12-12T07:12:29.292Z,96307.84
2022-12-12T07:14:57.940Z,96313.56
2022-12-12T07:17:26.478Z,96309.38
2022-12-12T07:19:54.822Z,96307.53
2022-12-12T07:22:23.140Z,96313.44
2022-12-12T07:24:53.035Z,96313.09
2022-12-12T07:27:22.043Z,96316.00
2022-12-12T07:29:51.869Z,96323.75
2022-12-12T07:32:20.593Z,96322.13
2022-12-12T07:34:48.936Z,96319.69
2022-12-12T07:37:17.705Z,96320.53
2022-12-12T07:39:46.158Z,96319.53
2022-12-12T07:42:14.823Z,96324.78
2022-12-12T07:44:43.159Z,96326.47
2022-12-12T07:47:12.815Z,96335.31
2022-12-12T07:49:41.140Z,96330.84
2022-12-12T07:52:10.206Z,96328.72
2022-12-12T07:54:38.719Z,96331.41
2022-12-12T07:57:07.415Z,96342.47
2022-12-12T07:59:36.128Z,96342.50
2022-12-12T08:02:05.287Z,96340.84
2022-12-12T08:04:35.373Z,96345.19
2022-12-12T08:07:08.254Z,96354.28
2022-12-12T08:09:38.076Z,96359.59
2022-12-12T08:12:07.206Z,96358.09
2022-12-12T08:14:35.620Z,96355.50
2022-12-12T08:17:03.983Z,96359.31
2022-12-12T08:19:34.510Z,96353.56
2022-12-12T08:22:03.226Z,96354.22
2022-12-12T08:24:31.548Z,96361.25
2022-12-12T08:26:59.922Z,96362.94
2022-12-12T08:29:28.532Z,96362.09
2022-12-12T08:31:57.269Z,96363.50
2022-12-12T08:34:26.116Z,96368.28
2022-12-12T08:36:56.070Z,96369.66
2022-12-12T08:39:24.756Z,96369.59
2022-12-12T08:41:53.533Z,96372.72
2022-12-12T08:44:22.723Z,96367.88
2022-12-12T08:46:51.502Z,96367.50
2022-12-12T08:49:20.674Z,96369.53
2022-12-12T08:51:51.347Z,96374.16
2022-12-12T08:54:21.454Z,96374.44
2022-12-12T08:56:50.295Z,96379.03
2022-12-12T08:59:19.881Z,96375.09
2022-12-12T09:01:48.747Z,96388.34
2022-12-12T09:04:19.192Z,96381.34
2022-12-12T09:06:47.897Z,96389.22
2022-12-12T09:09:16.534Z,96386.53
2022-12-12T09:11:46.214Z,96389.78
2022-12-12T09:14:14.531Z,96395.38
2022-12-12T09:16:43.232Z,96396.69
2022-12-12T09:19:13.341Z,96408.00
2022-12-12T09:21:41.685Z,96408.78
2022-12-12T09:24:10.711Z,96409.13
2022-12-12T09:26:39.130Z,96405.38
2022-12-12T09:29:08.998Z,96408.72
2022-12-12T09:31:37.690Z,96410.88
2022-12-12T09:34:06.025Z,96409.44
2022-12-12T09:36:34.734Z,96413.16
2022-12-12T09:39:03.093Z,96410.31
2022-12-12T09:41:31.923Z,96417.16
2022-12-12T09:44:06.247Z,96425.16
2022-12-12T09:46:39.881Z,96415.91
2022-12-12T09:49:18.405Z,96419.91
2022-12-12T09:51:52.233Z,96420.13
2022-12-12T09:54:23.677Z,96421.28
2022-12-12T09:57:07.588Z,96426.59
2022-12-12T09:59:45.291Z,96419.50
2022-12-12T10:02:47.734Z,96419.31
2022-12-12T10:05:34.168Z,96421.19
2022-12-12T10:08:15.272Z,96426.59
2022-12-12T10:10:46.913Z,96421.09
2022-12-12T10:13:19.350Z,96416.28
2022-12-12T10:15:52.587Z,96414.59
2022-12-12T10:18:30.033Z,96417.00
2022-12-12T10:21:01.333Z,96417.81
2022-12-12T10:23:41.389Z,96411.88
2022-12-12T10:26:18.236Z,96415.38
2022-12-12T10:28:50.467Z,96410.63
2022-12-12T10:31:31.401Z,96415.09
2022-12-12T10:34:18.333Z,96408.53
2022-12-12T10:37:12.421Z,96400.47
2022-12-12T10:39:59.333Z,96404.44
2022-12-12T10:42:38.270Z,96401.25
2022-12-12T10:45:32.502Z,96403.41
2022-12-12T10:48:01.607Z,96395.81
2022-12-12T10:50:36.347Z,96403.53
2022-12-12T10:53:08.933Z,96401.88
2022-12-12T10:55:47.839Z,96398.06
2022-12-12T10:58:17.191Z,96400.34
2022-12-12T11:00:47.709Z,96400.38
2022-12-12T11:03:29.608Z,96397.41
2022-12-12T11:06:05.418Z,96408.13
2022-12-12T11:08:36.805Z,96402.47
2022-12-12T11:11:19.978Z,96412.41
2022-12-12T11:13:55.047Z,96409.13
2022-12-12T11:16:26.298Z,96407.75
2022-12-12T11:19:18.032Z,96401.34
2022-12-12T11:21:49.628Z,96403.56
2022-12-12T11:24:22.078Z,96397.09
2022-12-12T11:26:58.197Z,96404.41
2022-12-12T11:29:36.749Z,96396.09
2022-12-12T11:32:06.312Z,96399.72
2022-12-12T11:34:40.596Z,96398.50
2022-12-12T11:37:17.754Z,96400.19
2022-12-12T11:39:50.821Z,96398.78
2022-12-12T11:42:26.028Z,96400.34
2022-12-12T11:45:05.400Z,96400.66
2022-12-12T11:47:41.863Z,96393.13
2022-12-12T11:50:21.529Z,96394.97
2022-12-12T11:52:55.135Z,96392.53
2022-12-12T11:55:40.317Z,96396.09
2022-12-12T11:58:23.573Z,96391.84
2022-12-12T12:01:00.713Z,96386.19
2022-12-12T12:03:54.223Z,96397.69
2022-12-12T12:06:37.982Z,96391.22
2022-12-12T12:09:24.380Z,96391.19
2022-12-12T12:12:05.397Z,96387.69
2022-12-12T12:14:48.507Z,96390.91
2022-12-12T12:17:26.866Z,96383.69
2022-12-12T12:20:10.581Z,96383.63
2022-12-12T12:23:00.762Z,96383.00
2022-12-12T12:25:43.451Z,96384.56
2022-12-12T12:29:03.725Z,96383.75
2022-12-12T12:31:43.515Z,96385.38
2022-12-12T12:34:23.194Z,96390.97
2022-12-12T12:37:09.255Z,96393.75
2022-12-12T12:40:09.901Z,96390.59
2022-12-12T12:43:15.476Z,96393.00
2022-12-12T12:45:50.693Z,96392.69
2022-12-12T12:48:23.222Z,96386.38
2022-12-12T12:51:00.511Z,96382.09
2022-12-12T12:53:39.870Z,96390.97
2022-12-12T12:56:26.610Z,96384.66
2022-12-12T12:59:02.408Z,96380.41
2022-12-12T13:01:39.898Z,96384.00
2022-12-12T13:04:18.468Z,96385.59
2022-12-12T13:06:54.925Z,96390.09
2022-12-12T13:09:36.066Z,96390.50
2022-12-12T13:12:15.638Z,96386.59
2022-12-12T13:14:52.748Z,96386.22
2022-12-12T13:17:42.139Z,96395.38
2022-12-12T13:20:19.304Z,96386.28
2022-12-12T13:23:03.752Z,96380.94
2022-12-12T13:25:42.023Z,96385.19
2022-12-12T13:28:19.132Z,96378.25
2022-12-12T13:31:33.061Z,96382.53
2022-12-12T13:34:07.678Z,96389.44
2022-12-12T13:36:40.340Z,96394.16
2022-12-12T13:39:26.210Z,96394.91
2022-12-12T13:42:02.401Z,96392.66
2022-12-12T13:44:37.826Z,96401.44
2022-12-12T13:47:29.272Z,96398.06
2022-12-12T13:50:04.611Z,96398.41
2022-12-12T13:52:35.128Z,96396.69
2022-12-12T13:55:24.344Z,96402.00
2022-12-12T13:58:36.296Z,96401.09
2022-12-12T14:01:39.213Z,96397.69
2022-12-12T14:04:27.489Z,96408.47
2022-12-12T14:07:06.152Z,96405.47
2022-12-12T14:09:49.152Z,96408.19
2022-12-12T14:12:26.064Z,96407.38
2022-12-12T14:15:01.673Z,96402.50
2022-12-12T14:17:41.793Z,96406.63
2022-12-12T14:20:33.990Z,96402.88
2022-12-12T14:23:27.667Z,96397.66
2022-12-12T14:25:59.048Z,96406.19
2022-12-12T14:28:29.215Z,96399.22
2022-12-12T14:31:13.335Z,96393.16
2022-12-12T14:34:16.653Z,96399.91
2022-12-12T14:37:23.131Z,96402.09
2022-12-12T14:40:15.755Z,96407.00
2022-12-12T14:43:20.125Z,96406.00
2022-12-12T14:45:57.923Z,96411.63
2022-12-12T14:48:29.252Z,96412.78
2022-12-12T14:51:10.247Z,96400.34
2022-12-12T14:53:49.325Z,96411.66
2022-12-12T14:56:22.056Z,96415.47
2022-12-12T14:59:00.722Z,96414.91
2022-12-12T15:01:35.270Z,96414.28
2022-12-12T15:04:07.829Z,96420.94
2022-12-12T15:06:40.252Z,96413.72
2022-12-12T15:09:26.037Z,96418.66
2022-12-12T15:11:57.004Z,96411.25
2022-12-12T15:14:29.810Z,96419.19
2022-12-12T15:17:09.429Z,96420.59
2022-12-12T15:19:41.582Z,96419.91
2022-12-12T15:22:19.741Z,96430.13
2022-12-12T15:24:50.193Z,96430.56
2022-12-12T15:27:24.537Z,96428.63
2022-12-12T15:29:53.400Z,96430.94
2022-12-12T15:32:24.250Z,96427.22
2022-12-12T15:35:04.551Z,96422.50
2022-12-12T15:37:35.720Z,96431.28
2022-12-12T15:40:21.691Z,96427.59
2022-12-12T15:42:57.676Z,96427.09
2022-12-12T15:45:33.543Z,96424.44
2022-12-12T15:48:02.975Z,96435.91
2022-12-12T15:50:53.457Z,96431.75
2022-12-12T15:53:25.778Z,96427.69
2022-12-12T15:56:02.334Z,96423.44
2022-12-12T15:58:34.273Z,96415.75
2022-12-12T16:01:21.752Z,96415.34
2022-12-12T16:03:59.776Z,96408.03
2022-12-12T16:06:31.019Z,96411.63
2022-12-12T16:09:08.584Z,96418.19
2022-12-12T16:11:47.159Z,96418.44
2022-12-12T16:14:40.859Z,96419.16
2022-12-12T16:17:16.869Z,96401.31
2022-12-12T16:19:48.706Z,96401.78
2022-12-12T16:22:34.638Z,96413.13
2022-12-12T16:25:18.292Z,96421.34
2022-12-12T16:27:53.610Z,96420.06
2022-12-12T16:30:22.278Z,96417.97
2022-12-12T16:32:51.423Z,96418.41
2022-12-12T16:35:23.310Z,96417.84
2022-12-12T16:37:53.735Z,96418.91
2022-12-12T16:40:23.334Z,96417.38
2022-12-12T16:43:07.713Z,96416.38
2022-12-12T16:45:39.819Z,96421.78
2022-12-12T16:48:16.642Z,96430.44
2022-12-12T16:50:46.086Z,96434.81
2022-12-12T16:53:14.715Z,96430.91
2022-12-12T16:55:46.508Z,96438.09
2022-12-12T16:58:16.516Z,96446.13
2022-12-12T17:00:45.789Z,96439.88
2022-12-12T17:03:16.805Z,96449.44
2022-12-12T17:05:46.825Z,96450.41
2022-12-12T17:08:16.199Z,96447.97
2022-12-12T17:10:45.786Z,96449.88
2022-12-12T17:13:17.958Z,96444.53
2022-12-12T17:15:46.647Z,96441.63
2022-12-12T17:18:15.386Z,96458.75
2022-12-12T17:20:44.603Z,96463.06
2022-12-12T17:23:29.554Z,96462.06
2022-12-12T17:26:04.118Z,96460.06
2022-12-12T17:28:35.560Z,96455.41
2022-12-12T17:31:09.024Z,96455.97
2022-12-12T17:33:46.225Z,96462.34
2022-12-12T17:36:19.749Z,96454.94
2022-12-12T17:38:49.467Z,96457.69
2022-12-12T17:41:18.187Z,96455.16
2022-12-12T17:43:53.665Z,96458.59
2022-12-12T17:46:25.096Z,96463.34
2022-12-12T17:48:56.754Z,96453.72
2022-12-12T17:51:26.129Z,96464.72
2022-12-12T17:53:55.658Z,96464.19
2022-12-12T17:56:27.481Z,96463.19
2022-12-12T17:58:58.065Z,96465.16
2022-12-12T18:01:29.127Z,96468.84
2022-12-12T18:03:59.506Z,96463.88
2022-12-12T18:06:31.459Z,96458.72
2022-12-12T18:09:00.747Z,96460.59
2022-12-12T18:11:33.143Z,96463.56
2022-12-12T18:14:07.627Z,96462.34
2022-12-12T18:16:37.512Z,96458.75
2022-12-12T18:19:05.956Z,96462.91
2022-12-12T18:21:59.899Z,96464.66
2022-12-12T18:24:29.169Z,96470.19
2022-12-12T18:27:01.669Z,96470.00
2022-12-12T18:29:32.882Z,96467.31
2022-12-12T18:32:01.764Z,96459.25
2022-12-12T18:34:30.227Z,96461.91
2022-12-12T18:36:58.816Z,96465.63
2022-12-12T18:39:28.247Z,96463.72
2022-12-12T18:41:57.017Z,96454.84
2022-12-12T18:44:25.334Z,96453.56
2022-12-12T18:46:55.789Z,96457.41
2022-12-12T18:49:24.433Z,96457.56
2022-12-12T18:51:53.649Z,96459.63
2022-12-12T18:54:22.276Z,96457.13
2022-12-12T18:56:51.016Z,96463.47
2022-12-12T18:59:19.350Z,96474.63
2022-12-12T19:01:48.682Z,96461.03
2022-12-12T19:04:23.237Z,96466.84
2022-12-12T19:06:53.533Z,96470.97
2022-12-12T19:09:23.208Z,96463.00
2022-12-12T19:11:58.214Z,96463.00
2022-12-12T19:14:45.845Z,96459.69
2022-12-12T19:17:25.232Z,96452.78
2022-12-12T19:19:55.962Z,96458.72
2022-12-12T19:22:44.310Z,96452.47
2022-12-12T19:25:14.070Z,96449.66
2022-12-12T19:27:42.607Z,96456.31
2022-12-12T19:30:13.633Z,96457.78
2022-12-12T19:32:43.260Z,96457.53
2022-12-12T19:35:13.022Z,96460.03
2022-12-12T19:37:41.666Z,96459.53
2022-12-12T19:40:11.647Z,96455.09
2022-12-12T19:42:41.359Z,96450.94
2022-12-12T19:45:11.386Z,96454.59
2022-12-12T19:47:40.361Z,96456.44
2022-12-12T19:50:12.585Z,96463.75
2022-12-12T19:52:41.536Z,96460.81
2022-12-12T19:55:10.695Z,96463.25
2022-12-12T19:57:39.393Z,96470.56
2022-12-12T20:00:12.919Z,96472.22
2022-12-12T20:02:41.824Z,96470.00
2022-12-12T20:05:12.562Z,96457.06
2022-12-12T20:07:41.173Z,96467.94
2022-12-12T20:10:10.647Z,96469.41
2022-12-12T20:12:46.210Z,96469.84
2022-12-12T20:15:20.810Z,96472.91
2022-12-12T20:17:49.454Z,96472.75
2022-12-12T20:20:19.513Z,96476.19
2022-12-12T20:22:47.804Z,96473.72
2022-12-12T20:25:16.180Z,96481.63
2022-12-12T20:27:44.883Z,96477.75
2022-12-12T20:30:14.381Z,96481.56
2022-12-12T20:32:43.203Z,96480.56
2022-12-12T20:35:12.565Z,96472.38
2022-12-12T20:37:42.318Z,96476.53
2022-12-12T20:40:12.766Z,96480.00
2022-12-12T20:42:41.907Z,96473.78
2022-12-12T20:45:11.141Z,96477.22
2022-12-12T20:47:39.788Z,96474.78
2022-12-12T20:50:08.719Z,96476.88
2022-12-12T20:52:37.493Z,96471.28
2022-12-12T20:55:09.155Z,96476.88
2022-12-12T20:57:37.991Z,96474.06
2022-12-12T21:00:08.458Z,96475.94
2022-12-12T21:02:39.423Z,96476.53
2022-12-12T21:05:09.275Z,96474.69
2022-12-12T21:07:38.129Z,96471.34
2022-12-12T21:10:08.868Z,96479.06
2022-12-12T21:12:38.375Z,96474.94
2022-12-12T21:15:07.929Z,96468.66
2022-12-12T21:17:36.948Z,96476.97
2022-12-12T21:20:08.810Z,96473.13
2022-12-12T21:22:37.732Z,96473.00
2022-12-12T21:25:08.756Z,96471.53
2022-12-12T21:27:37.583Z,96470.66
2022-12-12T21:30:06.943Z,96471.19
2022-12-12T21:32:35.698Z,96479.38
2022-12-12T21:35:04.609Z,96472.44
2022-12-12T21:37:38.616Z,96468.84
2022-12-12T21:40:12.579Z,96466.41
2022-12-12T21:42:41.083Z,96471.72
2022-12-12T21:45:11.758Z,96469.50
2022-12-12T21:47:40.409Z,96461.72
2022-12-12T21:50:10.597Z,96454.09
2022-12-12T21:52:39.687Z,96456.16
2022-12-12T21:55:10.351Z,96456.47
2022-12-12T21:57:39.044Z,96453.56
2022-12-12T22:00:09.750Z,96450.78
2022-12-12T22:02:44.688Z,96441.94
2022-12-12T22:05:16.130Z,96449.09
2022-12-12T22:07:44.799Z,96444.94
2022-12-12T22:10:14.496Z,96445.06
2022-12-12T22:12:42.883Z,96442.88
2022-12-12T22:15:25.928Z,96446.78
2022-12-12T22:17:55.541Z,96450.03
2022-12-12T22:20:24.214Z,96449.13
2022-12-12T22:22:52.896Z,96451.44
2022-12-12T22:25:22.532Z,96449.78
2022-12-12T22:27:51.200Z,96446.84
2022-12-12T22:30:19.802Z,96446.53
2022-12-12T22:32:48.460Z,96447.78
2022-12-12T22:35:17.248Z,96449.50
2022-12-12T22:37:45.899Z,96453.78
2022-12-12T22:40:14.310Z,96454.22
2022-12-12T22:42:44.109Z,96448.22
2022-12-12T22:45:13.245Z,96450.75
2022-12-12T22:47:41.804Z,96455.41
2022-12-12T22:50:11.218Z,96445.66
2022-12-12T22:52:39.512Z,96449.44
2022-12-12T22:55:08.814Z,96442.50
2022-12-12T22:57:37.230Z,96442.22
2022-12-12T23:00:10.432Z,96437.38
2022-12-12T23:02:38.773Z,96430.91
2022-12-12T23:05:07.533Z,96429.44
2022-12-12T23:07:35.924Z,96426.66
2022-12-12T23:10:05.286Z,96435.31
2022-12-12T23:12:33.634Z,96428.09
2022-12-12T23:15:02.484Z,96420.84
2022-12-12T23:17:32.332Z,96419.59
2022-12-12T23:20:00.620Z,96428.41
2022-12-12T23:22:28.994Z,96418.16
2022-12-12T23:24:57.365Z,96421.59
2022-12-12T23:27:25.928Z,96425.75
2022-12-12T23:29:54.478Z,96431.28
2022-12-12T23:32:23.116Z,96427.59
2022-12-12T23:34:53.007Z,96422.09
2022-12-12T23:37:21.319Z,96421.47
2022-12-12T23:39:52.042Z,96421.78
2022-12-12T23:42:20.658Z,96423.59
2022-12-12T23:44:50.949Z,96420.13
2022-12-12T23:47:19.765Z,96418.31
2022-12-12T23:49:48.452Z,96416.19
2022-12-12T23:52:18.115Z,96418.53
2022-12-12T23:54:47.545Z,96415.69
2022-12-12T23:57:15.838Z,96416.22
2022-12-12T23:59:44.174Z,96413.16
